sensor_id;sensor_type;location;lat;lon;timestamp;pressure;altitude;pressure_sealevel;temperature;humidity
76358;BME280;65185;21.060;105.826;2023-10-19T00:01:26;101192.16;;;26.83;95.01
76358;BME280;65185;21.060;105.826;2023-10-19T00:03:54;101198.34;;;26.83;95.23
76358;BME280;65185;21.060;105.826;2023-10-19T00:06:22;101198.34;;;26.83;95.69
76358;BME280;65185;21.060;105.826;2023-10-19T00:08:52;101209.66;;;26.87;95.95
76358;BME280;65185;21.060;105.826;2023-10-19T00:11:18;101208.69;;;26.88;96.43
76358;BME280;65185;21.060;105.826;2023-10-19T00:13:50;101210.28;;;26.90;96.45
76358;BME280;65185;21.060;105.826;2023-10-19T00:16:17;101215.50;;;26.92;96.81
76358;BME280;65185;21.060;105.826;2023-10-19T00:18:47;101211.88;;;26.93;96.61
76358;BME280;65185;21.060;105.826;2023-10-19T00:21:16;101226.16;;;26.92;96.59
76358;BME280;65185;21.060;105.826;2023-10-19T00:23:50;101227.66;;;26.96;95.95
76358;BME280;65185;21.060;105.826;2023-10-19T00:26:17;101223.94;;;26.98;96.31
76358;BME280;65185;21.060;105.826;2023-10-19T00:28:49;101225.88;;;26.96;96.04
76358;BME280;65185;21.060;105.826;2023-10-19T00:31:19;101229.56;;;26.94;96.09
76358;BME280;65185;21.060;105.826;2023-10-19T00:33:49;101226.59;;;26.98;96.09
76358;BME280;65185;21.060;105.826;2023-10-19T00:36:20;101221.19;;;27.00;95.91
76358;BME280;65185;21.060;105.826;2023-10-19T00:38:50;101221.00;;;27.03;95.87
76358;BME280;65185;21.060;105.826;2023-10-19T00:41:21;101226.09;;;27.06;95.89
76358;BME280;65185;21.060;105.826;2023-10-19T00:43:58;101228.66;;;27.07;95.85
76358;BME280;65185;21.060;105.826;2023-10-19T00:46:31;101235.69;;;27.08;95.79
76358;BME280;65185;21.060;105.826;2023-10-19T00:49:02;101240.72;;;27.13;95.56
76358;BME280;65185;21.060;105.826;2023-10-19T00:51:52;101237.88;;;27.16;95.37
76358;BME280;65185;21.060;105.826;2023-10-19T00:54:23;101243.84;;;27.19;95.43
76358;BME280;65185;21.060;105.826;2023-10-19T00:57:00;101242.78;;;27.22;94.95
76358;BME280;65185;21.060;105.826;2023-10-19T00:59:32;101242.59;;;27.25;94.96
76358;BME280;65185;21.060;105.826;2023-10-19T01:02:09;101241.44;;;27.29;94.41
76358;BME280;65185;21.060;105.826;2023-10-19T01:04:49;101242.00;;;27.34;94.25
76358;BME280;65185;21.060;105.826;2023-10-19T01:07:44;101235.53;;;27.38;93.93
76358;BME280;65185;21.060;105.826;2023-10-19T01:10:12;101244.16;;;27.41;93.67
76358;BME280;65185;21.060;105.826;2023-10-19T01:12:58;101243.84;;;27.46;93.37
76358;BME280;65185;21.060;105.826;2023-10-19T01:15:25;101239.19;;;27.49;92.95
76358;BME280;65185;21.060;105.826;2023-10-19T01:17:58;101242.50;;;27.53;93.17
76358;BME280;65185;21.060;105.826;2023-10-19T01:20:29;101242.28;;;27.56;92.84
76358;BME280;65185;21.060;105.826;2023-10-19T01:23:07;101244.66;;;27.61;92.47
76358;BME280;65185;21.060;105.826;2023-10-19T01:25:55;101246.06;;;27.66;92.51
76358;BME280;65185;21.060;105.826;2023-10-19T01:28:22;101243.72;;;27.74;92.19
76358;BME280;65185;21.060;105.826;2023-10-19T01:30:55;101239.16;;;27.76;91.89
76358;BME280;65185;21.060;105.826;2023-10-19T01:33:22;101241.59;;;27.79;91.91
76358;BME280;65185;21.060;105.826;2023-10-19T01:35:50;101239.78;;;27.80;91.33
76358;BME280;65185;21.060;105.826;2023-10-19T01:38:34;101241.28;;;27.84;91.64
76358;BME280;65185;21.060;105.826;2023-10-19T01:41:03;101242.56;;;27.91;91.26
76358;BME280;65185;21.060;105.826;2023-10-19T01:43:47;101242.19;;;27.97;90.45
76358;BME280;65185;21.060;105.826;2023-10-19T01:46:17;101242.63;;;28.03;90.74
76358;BME280;65185;21.060;105.826;2023-10-19T01:49:15;101243.91;;;28.10;89.55
76358;BME280;65185;21.060;105.826;2023-10-19T01:51:52;101239.13;;;28.15;89.24
76358;BME280;65185;21.060;105.826;2023-10-19T01:54:25;101249.25;;;28.23;88.76
76358;BME280;65185;21.060;105.826;2023-10-19T01:56:55;101241.56;;;28.31;87.87
76358;BME280;65185;21.060;105.826;2023-10-19T01:59:27;101240.28;;;28.36;86.91
76358;BME280;65185;21.060;105.826;2023-10-19T02:01:55;101238.88;;;28.43;87.06
76358;BME280;65185;21.060;105.826;2023-10-19T02:04:23;101236.75;;;28.48;86.16
76358;BME280;65185;21.060;105.826;2023-10-19T02:06:51;101235.03;;;28.47;85.69
76358;BME280;65185;21.060;105.826;2023-10-19T02:09:19;101239.13;;;28.53;85.60
76358;BME280;65185;21.060;105.826;2023-10-19T02:11:53;101244.13;;;28.58;85.71
76358;BME280;65185;21.060;105.826;2023-10-19T02:14:21;101233.66;;;28.54;84.83
76358;BME280;65185;21.060;105.826;2023-10-19T02:16:53;101243.28;;;28.57;85.21
76358;BME280;65185;21.060;105.826;2023-10-19T02:19:23;101238.06;;;28.56;85.16
76358;BME280;65185;21.060;105.826;2023-10-19T02:21:58;101237.19;;;28.55;85.56
76358;BME280;65185;21.060;105.826;2023-10-19T02:24:26;101244.88;;;28.60;85.12
76358;BME280;65185;21.060;105.826;2023-10-19T02:26:55;101241.88;;;28.64;84.96
76358;BME280;65185;21.060;105.826;2023-10-19T02:29:23;101244.84;;;28.72;84.89
76358;BME280;65185;21.060;105.826;2023-10-19T02:31:51;101246.84;;;28.81;84.40
76358;BME280;65185;21.060;105.826;2023-10-19T02:34:20;101251.41;;;28.92;84.75
76358;BME280;65185;21.060;105.826;2023-10-19T02:36:48;101242.22;;;28.96;83.88
76358;BME280;65185;21.060;105.826;2023-10-19T02:39:15;101242.28;;;29.07;83.24
76358;BME280;65185;21.060;105.826;2023-10-19T02:41:47;101237.78;;;29.20;82.37
76358;BME280;65185;21.060;105.826;2023-10-19T02:44:20;101240.47;;;29.43;81.72
76358;BME280;65185;21.060;105.826;2023-10-19T02:46:53;101234.91;;;29.58;80.06
76358;BME280;65185;21.060;105.826;2023-10-19T02:49:25;101229.94;;;29.77;79.52
76358;BME280;65185;21.060;105.826;2023-10-19T02:51:53;101227.31;;;29.99;78.64
76358;BME280;65185;21.060;105.826;2023-10-19T02:54:23;101219.94;;;30.24;76.63
76358;BME280;65185;21.060;105.826;2023-10-19T02:56:55;101224.22;;;30.60;75.70
76358;BME280;65185;21.060;105.826;2023-10-19T02:59:26;101225.28;;;31.02;73.96
76358;BME280;65185;21.060;105.826;2023-10-19T03:01:59;101218.69;;;31.49;71.36
76358;BME280;65185;21.060;105.826;2023-10-19T03:04:45;101206.06;;;31.92;69.49
76358;BME280;65185;21.060;105.826;2023-10-19T03:07:11;101204.81;;;32.26;67.10
76358;BME280;65185;21.060;105.826;2023-10-19T03:09:38;101200.06;;;32.60;65.50
76358;BME280;65185;21.060;105.826;2023-10-19T03:12:06;101195.31;;;32.82;64.03
76358;BME280;65185;21.060;105.826;2023-10-19T03:14:40;101189.03;;;33.12;62.55
76358;BME280;65185;21.060;105.826;2023-10-19T03:17:14;101192.72;;;33.20;62.90
76358;BME280;65185;21.060;105.826;2023-10-19T03:19:41;101179.44;;;33.28;61.41
76358;BME280;65185;21.060;105.826;2023-10-19T03:22:08;101180.84;;;33.52;61.03
76358;BME280;65185;21.060;105.826;2023-10-19T03:24:35;101180.81;;;33.42;60.47
76358;BME280;65185;21.060;105.826;2023-10-19T03:27:03;101175.78;;;33.49;60.48
76358;BME280;65185;21.060;105.826;2023-10-19T03:29:42;101172.63;;;33.63;59.42
76358;BME280;65185;21.060;105.826;2023-10-19T03:32:20;101171.34;;;33.76;59.50
76358;BME280;65185;21.060;105.826;2023-10-19T03:34:58;101172.09;;;33.59;60.16
76358;BME280;65185;21.060;105.826;2023-10-19T03:37:29;101166.84;;;33.39;60.56
76358;BME280;65185;21.060;105.826;2023-10-19T03:39:56;101160.34;;;33.32;60.25
76358;BME280;65185;21.060;105.826;2023-10-19T03:42:23;101155.97;;;33.21;61.05
76358;BME280;65185;21.060;105.826;2023-10-19T03:44:58;101161.75;;;33.07;61.76
76358;BME280;65185;21.060;105.826;2023-10-19T03:47:26;101146.75;;;32.95;61.63
76358;BME280;65185;21.060;105.826;2023-10-19T03:50:01;101143.88;;;32.87;62.00
76358;BME280;65185;21.060;105.826;2023-10-19T03:52:35;101135.13;;;32.75;61.57
76358;BME280;65185;21.060;105.826;2023-10-19T03:55:06;101125.78;;;32.60;62.54
76358;BME280;65185;21.060;105.826;2023-10-19T03:57:44;101124.47;;;32.45;62.84
76358;BME280;65185;21.060;105.826;2023-10-19T04:00:16;101125.41;;;32.34;62.56
76358;BME280;65185;21.060;105.826;2023-10-19T04:02:51;101115.63;;;32.33;62.12
76358;BME280;65185;21.060;105.826;2023-10-19T04:05:22;101111.09;;;32.24;61.83
76358;BME280;65185;21.060;105.826;2023-10-19T04:07:49;101103.31;;;32.21;63.11
76358;BME280;65185;21.060;105.826;2023-10-19T04:10:24;101111.19;;;32.13;63.42
76358;BME280;65185;21.060;105.826;2023-10-19T04:13:11;101102.44;;;32.11;63.33
76358;BME280;65185;21.060;105.826;2023-10-19T04:15:38;101105.78;;;32.04;63.79
76358;BME280;65185;21.060;105.826;2023-10-19T04:18:05;101096.34;;;32.00;65.18
76358;BME280;65185;21.060;105.826;2023-10-19T04:20:35;101095.06;;;32.04;65.08
76358;BME280;65185;21.060;105.826;2023-10-19T04:23:17;101082.38;;;32.06;63.20
76358;BME280;65185;21.060;105.826;2023-10-19T04:25:44;101082.13;;;32.09;63.96
76358;BME280;65185;21.060;105.826;2023-10-19T04:28:13;101077.16;;;32.04;63.53
76358;BME280;65185;21.060;105.826;2023-10-19T04:30:40;101081.94;;;32.01;64.22
76358;BME280;65185;21.060;105.826;2023-10-19T04:33:07;101085.72;;;31.98;64.83
76358;BME280;65185;21.060;105.826;2023-10-19T04:35:36;101070.22;;;32.02;64.11
76358;BME280;65185;21.060;105.826;2023-10-19T04:38:04;101077.72;;;32.08;63.50
76358;BME280;65185;21.060;105.826;2023-10-19T04:40:34;101064.59;;;32.05;63.83
76358;BME280;65185;21.060;105.826;2023-10-19T04:43:02;101067.97;;;31.97;64.14
76358;BME280;65185;21.060;105.826;2023-10-19T04:45:31;101056.09;;;31.90;64.14
76358;BME280;65185;21.060;105.826;2023-10-19T04:47:58;101054.41;;;31.99;64.86
76358;BME280;65185;21.060;105.826;2023-10-19T04:50:24;101055.59;;;32.15;63.37
76358;BME280;65185;21.060;105.826;2023-10-19T04:52:51;101050.81;;;32.19;63.52
76358;BME280;65185;21.060;105.826;2023-10-19T04:55:18;101051.41;;;32.32;64.89
76358;BME280;65185;21.060;105.826;2023-10-19T04:57:44;101035.47;;;32.40;63.19
76358;BME280;65185;21.060;105.826;2023-10-19T05:00:12;101031.78;;;32.31;62.36
76358;BME280;65185;21.060;105.826;2023-10-19T05:02:39;101025.81;;;32.18;63.46
76358;BME280;65185;21.060;105.826;2023-10-19T05:05:06;101015.19;;;32.07;62.81
76358;BME280;65185;21.060;105.826;2023-10-19T05:07:33;101019.16;;;32.03;63.25
76358;BME280;65185;21.060;105.826;2023-10-19T05:10:00;101014.16;;;31.89;63.44
76358;BME280;65185;21.060;105.826;2023-10-19T05:12:26;101010.25;;;31.73;63.06
76358;BME280;65185;21.060;105.826;2023-10-19T05:14:53;101006.84;;;31.61;63.72
76358;BME280;65185;21.060;105.826;2023-10-19T05:17:19;101003.13;;;31.53;63.46
76358;BME280;65185;21.060;105.826;2023-10-19T05:19:47;101003.22;;;31.42;64.08
76358;BME280;65185;21.060;105.826;2023-10-19T05:22:13;100998.72;;;31.42;64.60
76358;BME280;65185;21.060;105.826;2023-10-19T05:24:40;100990.59;;;31.53;65.44
76358;BME280;65185;21.060;105.826;2023-10-19T05:27:08;100984.53;;;31.51;64.66
76358;BME280;65185;21.060;105.826;2023-10-19T05:29:35;100981.78;;;31.42;65.23
76358;BME280;65185;21.060;105.826;2023-10-19T05:32:02;100989.16;;;31.49;67.06
76358;BME280;65185;21.060;105.826;2023-10-19T05:34:29;100976.66;;;31.59;65.83
76358;BME280;65185;21.060;105.826;2023-10-19T05:36:58;100966.97;;;31.68;65.94
76358;BME280;65185;21.060;105.826;2023-10-19T05:39:28;100972.38;;;31.87;65.49
76358;BME280;65185;21.060;105.826;2023-10-19T05:41:56;100961.13;;;31.93;65.01
76358;BME280;65185;21.060;105.826;2023-10-19T05:44:32;100965.16;;;31.78;63.79
76358;BME280;65185;21.060;105.826;2023-10-19T05:46:59;100955.53;;;31.66;63.86
76358;BME280;65185;21.060;105.826;2023-10-19T05:49:25;100950.59;;;31.61;63.83
76358;BME280;65185;21.060;105.826;2023-10-19T05:51:52;100950.13;;;31.47;64.28
76358;BME280;65185;21.060;105.826;2023-10-19T05:54:19;100940.44;;;31.34;65.46
76358;BME280;65185;21.060;105.826;2023-10-19T05:56:45;100946.59;;;31.25;65.51
76358;BME280;65185;21.060;105.826;2023-10-19T05:59:12;100928.13;;;31.22;66.04
76358;BME280;65185;21.060;105.826;2023-10-19T06:01:39;100925.53;;;31.11;65.54
76358;BME280;65185;21.060;105.826;2023-10-19T06:04:12;100922.53;;;31.05;65.68
76358;BME280;65185;21.060;105.826;2023-10-19T06:06:39;100924.50;;;31.03;65.77
76358;BME280;65185;21.060;105.826;2023-10-19T06:09:07;100917.19;;;31.05;65.84
76358;BME280;65185;21.060;105.826;2023-10-19T06:11:37;100915.75;;;31.01;66.20
76358;BME280;65185;21.060;105.826;2023-10-19T06:14:08;100908.19;;;31.06;67.01
76358;BME280;65185;21.060;105.826;2023-10-19T06:16:36;100904.94;;;31.02;68.01
76358;BME280;65185;21.060;105.826;2023-10-19T06:19:03;100897.56;;;30.95;68.63
76358;BME280;65185;21.060;105.826;2023-10-19T06:21:29;100901.84;;;31.07;69.97
76358;BME280;65185;21.060;105.826;2023-10-19T06:23:58;100888.72;;;31.04;67.89
76358;BME280;65185;21.060;105.826;2023-10-19T06:26:24;100890.91;;;31.19;68.81
76358;BME280;65185;21.060;105.826;2023-10-19T06:28:51;100889.13;;;31.29;67.00
76358;BME280;65185;21.060;105.826;2023-10-19T06:31:23;100889.19;;;31.39;66.53
76358;BME280;65185;21.060;105.826;2023-10-19T06:33:50;100881.63;;;31.54;66.58
76358;BME280;65185;21.060;105.826;2023-10-19T06:36:16;100874.97;;;31.48;66.57
76358;BME280;65185;21.060;105.826;2023-10-19T06:38:43;100870.69;;;31.36;66.78
76358;BME280;65185;21.060;105.826;2023-10-19T06:41:13;100863.44;;;31.27;67.35
76358;BME280;65185;21.060;105.826;2023-10-19T06:43:41;100863.00;;;31.22;67.91
76358;BME280;65185;21.060;105.826;2023-10-19T06:46:08;100858.34;;;31.14;68.18
76358;BME280;65185;21.060;105.826;2023-10-19T06:48:37;100856.47;;;31.05;68.97
76358;BME280;65185;21.060;105.826;2023-10-19T06:51:04;100859.09;;;30.96;68.57
76358;BME280;65185;21.060;105.826;2023-10-19T06:53:32;100857.66;;;30.92;68.87
76358;BME280;65185;21.060;105.826;2023-10-19T06:55:59;100854.59;;;30.96;69.64
76358;BME280;65185;21.060;105.826;2023-10-19T06:58:26;100852.72;;;30.87;69.62
76358;BME280;65185;21.060;105.826;2023-10-19T07:00:53;100853.81;;;30.85;70.04
76358;BME280;65185;21.060;105.826;2023-10-19T07:03:25;100856.16;;;30.78;69.98
76358;BME280;65185;21.060;105.826;2023-10-19T07:05:54;100858.50;;;30.72;70.26
76358;BME280;65185;21.060;105.826;2023-10-19T07:08:21;100849.03;;;30.68;70.41
76358;BME280;65185;21.060;105.826;2023-10-19T07:10:48;100844.09;;;30.63;70.55
76358;BME280;65185;21.060;105.826;2023-10-19T07:13:17;100848.75;;;30.61;70.78
76358;BME280;65185;21.060;105.826;2023-10-19T07:15:47;100841.16;;;30.66;70.07
76358;BME280;65185;21.060;105.826;2023-10-19T07:18:15;100846.19;;;30.60;70.26
76358;BME280;65185;21.060;105.826;2023-10-19T07:20:41;100835.81;;;30.66;70.92
76358;BME280;65185;21.060;105.826;2023-10-19T07:23:09;100837.56;;;30.77;70.49
76358;BME280;65185;21.060;105.826;2023-10-19T07:25:46;100830.31;;;30.88;70.66
76358;BME280;65185;21.060;105.826;2023-10-19T07:28:22;100832.03;;;30.99;70.26
76358;BME280;65185;21.060;105.826;2023-10-19T07:30:56;100827.56;;;30.99;70.00
76358;BME280;65185;21.060;105.826;2023-10-19T07:33:22;100829.94;;;30.93;70.63
76358;BME280;65185;21.060;105.826;2023-10-19T07:35:50;100835.53;;;30.90;69.98
76358;BME280;65185;21.060;105.826;2023-10-19T07:38:26;100830.75;;;30.84;70.31
76358;BME280;65185;21.060;105.826;2023-10-19T07:40:59;100826.88;;;30.77;69.68
76358;BME280;65185;21.060;105.826;2023-10-19T07:43:26;100828.28;;;30.81;70.91
76358;BME280;65185;21.060;105.826;2023-10-19T07:45:53;100814.53;;;30.85;70.62
76358;BME280;65185;21.060;105.826;2023-10-19T07:48:20;100824.56;;;30.93;71.57
76358;BME280;65185;21.060;105.826;2023-10-19T07:50:46;100819.22;;;30.93;70.72
76358;BME280;65185;21.060;105.826;2023-10-19T07:53:13;100810.28;;;30.83;70.10
76358;BME280;65185;21.060;105.826;2023-10-19T07:55:40;100814.81;;;30.82;70.48
76358;BME280;65185;21.060;105.826;2023-10-19T07:58:09;100811.41;;;30.80;71.33
76358;BME280;65185;21.060;105.826;2023-10-19T08:00:36;100813.44;;;30.88;70.84
76358;BME280;65185;21.060;105.826;2023-10-19T08:03:03;100809.25;;;30.95;70.49
76358;BME280;65185;21.060;105.826;2023-10-19T08:05:31;100812.63;;;30.97;70.13
76358;BME280;65185;21.060;105.826;2023-10-19T08:07:59;100800.53;;;31.02;70.34
76358;BME280;65185;21.060;105.826;2023-10-19T08:10:26;100799.94;;;30.99;70.56
76358;BME280;65185;21.060;105.826;2023-10-19T08:12:53;100809.47;;;30.92;71.23
76358;BME280;65185;21.060;105.826;2023-10-19T08:15:21;100805.66;;;30.85;71.39
76358;BME280;65185;21.060;105.826;2023-10-19T08:17:50;100815.25;;;30.87;71.46
76358;BME280;65185;21.060;105.826;2023-10-19T08:20:19;100819.91;;;30.85;71.09
76358;BME280;65185;21.060;105.826;2023-10-19T08:22:59;100811.44;;;30.90;71.18
76358;BME280;65185;21.060;105.826;2023-10-19T08:25:27;100818.91;;;30.86;70.42
76358;BME280;65185;21.060;105.826;2023-10-19T08:27:54;100823.81;;;30.81;70.36
76358;BME280;65185;21.060;105.826;2023-10-19T08:30:24;100819.53;;;30.79;70.83
76358;BME280;65185;21.060;105.826;2023-10-19T08:32:52;100827.25;;;30.72;70.82
76358;BME280;65185;21.060;105.826;2023-10-19T08:35:20;100822.03;;;30.71;71.06
76358;BME280;65185;21.060;105.826;2023-10-19T08:37:51;100833.19;;;30.76;71.73
76358;BME280;65185;21.060;105.826;2023-10-19T08:40:19;100830.50;;;30.76;72.15
76358;BME280;65185;21.060;105.826;2023-10-19T08:42:47;100831.22;;;30.78;71.58
76358;BME280;65185;21.060;105.826;2023-10-19T08:45:14;100831.75;;;30.72;70.86
76358;BME280;65185;21.060;105.826;2023-10-19T08:50:16;100836.34;;;30.60;71.59
76358;BME280;65185;21.060;105.826;2023-10-19T08:52:52;100840.13;;;30.58;72.13
76358;BME280;65185;21.060;105.826;2023-10-19T08:55:20;100839.69;;;30.53;71.92
76358;BME280;65185;21.060;105.826;2023-10-19T08:57:50;100848.94;;;30.49;72.67
76358;BME280;65185;21.060;105.826;2023-10-19T09:00:18;100842.88;;;30.47;72.46
76358;BME280;65185;21.060;105.826;2023-10-19T09:02:46;100845.84;;;30.53;72.50
76358;BME280;65185;21.060;105.826;2023-10-19T09:05:13;100846.00;;;30.52;72.58
76358;BME280;65185;21.060;105.826;2023-10-19T09:07:49;100849.53;;;30.52;72.21
76358;BME280;65185;21.060;105.826;2023-10-19T09:10:22;100851.47;;;30.50;72.59
76358;BME280;65185;21.060;105.826;2023-10-19T09:13:05;100848.81;;;30.50;72.61
76358;BME280;65185;21.060;105.826;2023-10-19T09:15:36;100844.97;;;30.43;73.01
76358;BME280;65185;21.060;105.826;2023-10-19T09:20:45;100852.59;;;30.48;73.25
76358;BME280;65185;21.060;105.826;2023-10-19T09:23:30;100855.25;;;30.48;73.77
76358;BME280;65185;21.060;105.826;2023-10-19T09:25:58;100860.44;;;30.39;73.99
76358;BME280;65185;21.060;105.826;2023-10-19T09:28:29;100868.69;;;30.36;73.17
76358;BME280;65185;21.060;105.826;2023-10-19T09:30:55;100871.03;;;30.30;73.24
76358;BME280;65185;21.060;105.826;2023-10-19T09:33:23;100877.25;;;30.30;73.22
76358;BME280;65185;21.060;105.826;2023-10-19T09:35:51;100875.41;;;30.31;73.67
76358;BME280;65185;21.060;105.826;2023-10-19T09:38:22;100879.41;;;30.25;74.35
76358;BME280;65185;21.060;105.826;2023-10-19T09:40:54;100887.56;;;30.24;74.95
76358;BME280;65185;21.060;105.826;2023-10-19T09:43:30;100889.41;;;30.23;76.04
76358;BME280;65185;21.060;105.826;2023-10-19T09:46:03;100884.94;;;30.13;76.11
76358;BME280;65185;21.060;105.826;2023-10-19T09:48:34;100888.97;;;30.07;75.83
76358;BME280;65185;21.060;105.826;2023-10-19T09:51:05;100889.34;;;30.03;76.01
76358;BME280;65185;21.060;105.826;2023-10-19T09:53:35;100888.38;;;30.04;76.66
76358;BME280;65185;21.060;105.826;2023-10-19T09:56:09;100888.78;;;29.99;76.70
76358;BME280;65185;21.060;105.826;2023-10-19T09:58:45;100891.69;;;29.96;77.81
76358;BME280;65185;21.060;105.826;2023-10-19T10:01:13;100898.97;;;29.94;77.63
76358;BME280;65185;21.060;105.826;2023-10-19T10:03:49;100898.50;;;29.89;78.53
76358;BME280;65185;21.060;105.826;2023-10-19T10:09:20;100907.59;;;29.87;78.83
76358;BME280;65185;21.060;105.826;2023-10-19T10:11:51;100914.19;;;29.83;79.20
76358;BME280;65185;21.060;105.826;2023-10-19T10:14:27;100910.28;;;29.87;78.84
76358;BME280;65185;21.060;105.826;2023-10-19T10:17:02;100912.63;;;29.80;79.18
76358;BME280;65185;21.060;105.826;2023-10-19T10:19:29;100916.38;;;29.78;79.20
76358;BME280;65185;21.060;105.826;2023-10-19T10:22:11;100918.09;;;29.79;79.36
76358;BME280;65185;21.060;105.826;2023-10-19T10:24:44;100908.50;;;29.76;79.57
76358;BME280;65185;21.060;105.826;2023-10-19T10:27:12;100914.94;;;29.74;79.48
76358;BME280;65185;21.060;105.826;2023-10-19T10:29:56;100924.06;;;29.71;79.73
76358;BME280;65185;21.060;105.826;2023-10-19T10:32:51;100918.72;;;29.71;79.75
76358;BME280;65185;21.060;105.826;2023-10-19T10:38:09;100928.88;;;29.66;80.64
76358;BME280;65185;21.060;105.826;2023-10-19T10:40:45;100932.78;;;29.62;80.25
76358;BME280;65185;21.060;105.826;2023-10-19T10:43:13;100934.59;;;29.62;80.00
76358;BME280;65185;21.060;105.826;2023-10-19T10:45:40;100933.03;;;29.59;79.51
76358;BME280;65185;21.060;105.826;2023-10-19T10:48:17;100941.88;;;29.60;79.98
76358;BME280;65185;21.060;105.826;2023-10-19T10:50:45;100948.31;;;29.57;78.79
76358;BME280;65185;21.060;105.826;2023-10-19T10:53:13;100947.72;;;29.54;78.30
76358;BME280;65185;21.060;105.826;2023-10-19T10:55:43;100949.41;;;29.55;79.46
76358;BME280;65185;21.060;105.826;2023-10-19T10:58:15;100947.72;;;29.54;79.74
76358;BME280;65185;21.060;105.826;2023-10-19T11:00:43;100953.16;;;29.52;79.26
76358;BME280;65185;21.060;105.826;2023-10-19T11:03:11;100951.59;;;29.49;79.18
76358;BME280;65185;21.060;105.826;2023-10-19T11:05:38;100950.75;;;29.49;78.86
76358;BME280;65185;21.060;105.826;2023-10-19T11:08:13;100960.56;;;29.48;78.85
76358;BME280;65185;21.060;105.826;2023-10-19T11:10:41;100960.69;;;29.47;78.71
76358;BME280;65185;21.060;105.826;2023-10-19T11:13:10;100962.50;;;29.46;78.76
76358;BME280;65185;21.060;105.826;2023-10-19T11:15:39;100967.97;;;29.45;77.96
76358;BME280;65185;21.060;105.826;2023-10-19T11:18:07;100967.97;;;29.45;77.94
76358;BME280;65185;21.060;105.826;2023-10-19T11:20:34;100972.59;;;29.43;79.02
76358;BME280;65185;21.060;105.826;2023-10-19T11:23:01;100977.09;;;29.42;78.51
76358;BME280;65185;21.060;105.826;2023-10-19T11:25:29;100983.53;;;29.40;78.89
76358;BME280;65185;21.060;105.826;2023-10-19T11:27:57;100988.97;;;29.38;78.21
76358;BME280;65185;21.060;105.826;2023-10-19T11:30:30;100989.81;;;29.39;78.31
76358;BME280;65185;21.060;105.826;2023-10-19T11:33:00;101000.75;;;29.36;78.05
76358;BME280;65185;21.060;105.826;2023-10-19T11:35:29;101000.88;;;29.34;77.62
76358;BME280;65185;21.060;105.826;2023-10-19T11:37:58;101010.56;;;29.35;78.13
76358;BME280;65185;21.060;105.826;2023-10-19T11:40:26;101012.41;;;29.35;78.01
76358;BME280;65185;21.060;105.826;2023-10-19T11:42:54;101015.41;;;29.30;78.42
76358;BME280;65185;21.060;105.826;2023-10-19T11:45:26;101025.97;;;29.32;77.98
76358;BME280;65185;21.060;105.826;2023-10-19T11:47:54;101030.34;;;29.33;78.24
76358;BME280;65185;21.060;105.826;2023-10-19T11:50:22;101023.44;;;29.30;78.47
76358;BME280;65185;21.060;105.826;2023-10-19T11:52:50;101025.16;;;29.31;79.53
76358;BME280;65185;21.060;105.826;2023-10-19T11:55:18;101038.38;;;29.33;81.21
76358;BME280;65185;21.060;105.826;2023-10-19T11:57:47;101042.84;;;29.32;82.34
76358;BME280;65185;21.060;105.826;2023-10-19T12:00:14;101047.31;;;29.32;82.81
76358;BME280;65185;21.060;105.826;2023-10-19T12:02:48;101046.59;;;29.30;82.69
76358;BME280;65185;21.060;105.826;2023-10-19T12:05:14;101052.06;;;29.28;82.81
76358;BME280;65185;21.060;105.826;2023-10-19T12:07:41;101058.38;;;29.27;83.21
76358;BME280;65185;21.060;105.826;2023-10-19T12:10:11;101064.66;;;29.26;83.67
76358;BME280;65185;21.060;105.826;2023-10-19T12:12:40;101058.72;;;29.23;84.72
76358;BME280;65185;21.060;105.826;2023-10-19T12:15:07;101065.03;;;29.22;84.08
76358;BME280;65185;21.060;105.826;2023-10-19T12:17:35;101063.44;;;29.19;84.05
76358;BME280;65185;21.060;105.826;2023-10-19T12:20:02;101077.53;;;29.21;84.14
76358;BME280;65185;21.060;105.826;2023-10-19T12:22:32;101080.19;;;29.21;83.76
76358;BME280;65185;21.060;105.826;2023-10-19T12:25:06;101090.13;;;29.19;83.96
76358;BME280;65185;21.060;105.826;2023-10-19T12:27:33;101080.66;;;29.15;84.10
76358;BME280;65185;21.060;105.826;2023-10-19T12:30:00;101085.03;;;29.16;83.91
76358;BME280;65185;21.060;105.826;2023-10-19T12:32:37;101092.19;;;29.16;84.12
76358;BME280;65185;21.060;105.826;2023-10-19T12:35:04;101087.84;;;29.15;84.04
76358;BME280;65185;21.060;105.826;2023-10-19T12:37:38;101089.63;;;29.14;83.42
76358;BME280;65185;21.060;105.826;2023-10-19T12:40:15;101092.19;;;29.16;84.05
76358;BME280;65185;21.060;105.826;2023-10-19T12:43:08;101102.00;;;29.15;84.11
76358;BME280;65185;21.060;105.826;2023-10-19T12:45:36;101094.00;;;29.15;84.58
76358;BME280;65185;21.060;105.826;2023-10-19T12:48:03;101104.66;;;29.15;84.61
76358;BME280;65185;21.060;105.826;2023-10-19T12:50:30;101108.19;;;29.16;84.26
76358;BME280;65185;21.060;105.826;2023-10-19T12:52:57;101110.25;;;29.12;83.81
76358;BME280;65185;21.060;105.826;2023-10-19T12:55:24;101120.81;;;29.14;84.20
76358;BME280;65185;21.060;105.826;2023-10-19T12:57:55;101125.28;;;29.13;84.01